Time;durP1;ratioP1;P1;durP2;ratioP2;P2;SDS_P1;SDS_P2;PMS_P1;PMS_P2;Temp;Humidity;BMP_temperature;BMP_pressure;BME280_temperature;BME280_humidity;BME280_pressure;Samples;Min_cycle;Max_cycle;Signal;HPM_P1;HPM_P2
2022/08/01 00:00:09;;;;;;;4.60;3.78;;;;;;;18.15;100.00;99654.69;6266282;28;20178;-74
2022/08/01 00:03:11;;;;;;;3.78;3.47;;;;;;;18.16;100.00;99662.47;6300741;28;20375;-73
2022/08/01 00:06:11;;;;;;;3.90;3.50;;;;;;;18.21;100.00;99657.56;6282463;28;20048;-70
2022/08/01 00:09:12;;;;;;;4.23;3.20;;;;;;;18.03;100.00;99654.91;6282580;28;20053;-70
2022/08/01 00:12:13;;;;;;;4.13;3.00;;;;;;;17.81;100.00;99650.91;6282254;28;20055;-73
2022/08/01 00:15:16;;;;;;;3.90;3.10;;;;;;;17.98;100.00;99659.00;6281787;28;20036;-73
2022/08/01 00:18:17;;;;;;;3.30;3.00;;;;;;;18.11;100.00;99660.25;6300051;28;20071;-74
2022/08/01 00:21:20;;;;;;;3.07;2.77;;;;;;;18.12;100.00;99661.94;6265713;28;20136;-70
2022/08/01 00:24:21;;;;;;;3.47;3.13;;;;;;;18.00;100.00;99652.59;6282776;28;20226;-73
2022/08/01 00:27:21;;;;;;;3.57;3.03;;;;;;;17.86;100.00;99651.28;6299974;28;20036;-73
2022/08/01 00:30:23;;;;;;;3.53;2.90;;;;;;;17.97;100.00;99652.06;6265793;28;20478;-73
2022/08/01 00:33:24;;;;;;;4.35;2.92;;;;;;;17.95;100.00;99669.84;6282128;28;20402;-74
2022/08/01 00:36:25;;;;;;;3.42;2.58;;;;;;;18.05;100.00;99667.97;6299616;28;20072;-73
2022/08/01 00:39:26;;;;;;;6.38;2.50;;;;;;;17.75;100.00;99662.06;6265637;28;20048;-74
2022/08/01 00:42:27;;;;;;;3.10;2.50;;;;;;;17.94;100.00;99663.75;6265682;28;20082;-74
2022/08/01 00:45:28;;;;;;;6.25;2.63;;;;;;;18.08;100.00;99665.03;6281793;28;20169;-74
2022/08/01 00:48:29;;;;;;;4.20;3.00;;;;;;;18.12;100.00;99672.50;6299651;28;20051;-74
2022/08/01 00:51:33;;;;;;;2.73;2.50;;;;;;;18.14;100.00;99667.06;6265264;28;20494;-73
2022/08/01 00:54:34;;;;;;;3.22;2.25;;;;;;;18.12;100.00;99664.59;6282039;28;20080;-74
2022/08/01 00:57:35;;;;;;;2.80;2.42;;;;;;;18.16;100.00;99666.91;6265237;28;20076;-74
2022/08/01 01:00:37;;;;;;;5.22;2.28;;;;;;;18.27;100.00;99667.50;6281483;28;20068;-74
2022/08/01 01:03:38;;;;;;;3.40;2.60;;;;;;;18.26;100.00;99665.00;6281534;28;20474;-73
2022/08/01 01:06:58;;;;;;;2.33;2.13;;;;;;;18.19;100.00;99661.34;6298479;28;20117;-74
2022/08/01 01:10:08;;;;;;;3.25;2.30;;;;;;;18.25;100.00;99669.47;6298903;28;20379;-70
2022/08/01 01:13:23;;;;;;;4.63;2.50;;;;;;;18.31;100.00;99665.41;6280552;28;20040;-70
2022/08/01 01:16:25;;;;;;;4.57;2.10;;;;;;;18.25;100.00;99669.47;6281105;28;20045;-70
2022/08/01 01:19:30;;;;;;;6.47;2.30;;;;;;;18.27;100.00;99654.31;6298634;28;20060;-73
2022/08/01 01:22:59;;;;;;;2.50;2.10;;;;;;;18.29;100.00;99662.06;6298860;28;20391;-74
2022/08/01 01:26:32;;;;;;;4.30;1.70;;;;;;;18.30;100.00;99658.44;6260410;28;20491;-73
2022/08/01 01:29:41;;;;;;;1.60;1.50;;;;;;;18.24;100.00;99666.97;6298701;28;20132;-70
2022/08/01 01:32:46;;;;;;;2.42;1.70;;;;;;;18.20;100.00;99669.09;6280645;28;20036;-73
2022/08/01 01:35:51;;;;;;;4.20;1.80;;;;;;;18.16;100.00;99675.69;6298350;28;20040;-69
2022/08/01 01:38:54;;;;;;;2.50;1.88;;;;;;;18.18;100.00;99680.78;6280358;28;20552;-69
2022/08/01 01:41:57;;;;;;;2.10;1.90;;;;;;;18.06;100.00;99686.31;6298107;28;20040;-74
2022/08/01 01:45:00;;;;;;;4.03;2.05;;;;;;;18.16;100.00;99680.97;6298075;28;20043;-70
2022/08/01 01:48:01;;;;;;;3.80;1.90;;;;;;;18.13;100.00;99678.59;6297517;28;20039;-69
2022/08/01 01:51:03;;;;;;;2.33;2.00;;;;;;;18.12;100.00;99677.78;6297391;28;20483;-73
2022/08/01 01:54:04;;;;;;;;;;;;;;;18.15;100.00;99678.47;6298351;28;20047;-69
2022/08/01 01:57:08;;;;;;;3.33;2.05;;;;;;;18.10;100.00;99679.75;6297619;28;19924;-69
2022/08/01 02:00:11;;;;;;;5.47;1.80;;;;;;;17.99;100.00;99673.84;6279788;28;20059;-70
2022/08/01 02:03:14;;;;;;;3.03;1.73;;;;;;;18.07;100.00;99677.38;6297628;28;20048;-74
2022/08/01 02:06:16;;;;;;;3.60;1.73;;;;;;;17.84;100.00;99673.53;6297615;28;20051;-73
2022/08/01 02:09:19;;;;;;;2.55;1.67;;;;;;;17.70;100.00;99678.31;6297525;28;20080;-69
2022/08/01 02:12:24;;;;;;;5.20;1.80;;;;;;;17.71;100.00;99677.34;6297610;28;20041;-69
2022/08/01 02:15:27;;;;;;;1.73;1.63;;;;;;;17.71;100.00;99685.25;6262523;28;20072;-69
2022/08/01 02:18:28;;;;;;;3.55;1.60;;;;;;;17.85;100.00;99686.59;6296804;28;20391;-70
2022/08/01 02:21:37;;;;;;;4.57;1.97;;;;;;;17.92;100.00;99682.38;6262806;28;20044;-73
2022/08/01 02:24:49;;;;;;;2.65;1.80;;;;;;;17.78;100.00;99695.22;6297233;28;20044;-74
2022/08/01 02:28:01;;;;;;;2.38;2.00;;;;;;;17.65;100.00;99692.94;6297074;28;20040;-73
2022/08/01 02:31:09;;;;;;;2.45;2.05;;;;;;;17.80;100.00;99688.00;6297304;28;20506;-74
2022/08/01 02:34:15;;;;;;;3.20;2.20;;;;;;;17.88;100.00;99688.94;6297197;28;20045;-70
2022/08/01 02:37:18;;;;;;;2.47;2.17;;;;;;;17.83;100.00;99683.28;6297026;28;20063;-74
2022/08/01 02:40:20;;;;;;;2.53;2.03;;;;;;;17.94;100.00;99691.97;6279131;28;20075;-73
2022/08/01 02:43:24;;;;;;;2.67;1.98;;;;;;;17.77;100.00;99690.91;6297031;28;20064;-70
2022/08/01 02:46:33;;;;;;;5.07;2.17;;;;;;;17.75;100.00;99696.34;6296776;28;20970;-74
2022/08/01 02:49:38;;;;;;;1.90;1.80;;;;;;;17.77;100.00;99696.19;6278982;28;20509;-73
2022/08/01 02:52:43;;;;;;;2.30;1.80;;;;;;;17.72;100.00;99699.28;6296827;28;20042;-69
2022/08/01 02:55:47;;;;;;;2.17;1.98;;;;;;;17.55;100.00;99714.09;6296660;28;20482;-73
2022/08/01 02:58:50;;;;;;;2.47;2.00;;;;;;;17.53;100.00;99714.22;6278607;28;20056;-70
2022/08/01 03:01:55;;;;;;;3.45;2.08;;;;;;;17.65;100.00;99719.34;6278874;28;20090;-74
2022/08/01 03:04:58;;;;;;;2.88;2.10;;;;;;;17.70;100.00;99704.69;6296643;28;20048;-74
2022/08/01 03:08:00;;;;;;;2.40;2.10;;;;;;;17.64;100.00;99705.28;6296477;28;20052;-74
2022/08/01 03:11:01;;;;;;;;;;;;;;;17.67;100.00;99701.53;6262596;28;20499;-71
2022/08/01 03:14:06;;;;;;;1.80;1.70;;;;;;;17.81;100.00;99693.13;6278793;28;19927;-70
2022/08/01 03:17:08;;;;;;;2.35;1.73;;;;;;;17.88;100.00;99683.66;6278569;28;20049;-70
2022/08/01 03:20:12;;;;;;;2.53;1.80;;;;;;;18.03;100.00;99680.50;6296176;28;20044;-70
2022/08/01 03:23:15;;;;;;;3.25;1.58;;;;;;;18.01;100.00;99678.00;6278678;28;20086;-70
2022/08/01 03:26:17;;;;;;;4.63;1.88;;;;;;;18.04;100.00;99679.53;6296426;28;20043;-70
2022/08/01 03:29:24;;;;;;;1.38;1.27;;;;;;;17.98;100.00;99677.50;6296413;28;20677;-76
2022/08/01 03:32:27;;;;;;;2.63;1.40;;;;;;;17.97;100.00;99667.88;6300795;28;20044;-72
2022/08/01 03:35:40;;;;;;;1.50;1.40;;;;;;;18.02;100.00;99668.28;6283496;28;20068;-73
2022/08/01 03:38:44;;;;;;;2.15;1.30;;;;;;;18.12;100.00;99666.41;6300986;28;20402;-72
2022/08/01 03:42:03;;;;;;;1.35;1.25;;;;;;;18.11;100.00;99667.38;6283182;28;20080;-72
2022/08/01 03:45:12;;;;;;;2.60;1.70;;;;;;;18.09;100.00;99662.22;6301042;28;20109;-73
2022/08/01 03:48:15;;;;;;;2.17;1.52;;;;;;;18.16;100.00;99666.91;6282898;28;20152;-75
2022/08/01 03:51:18;;;;;;;5.65;2.05;;;;;;;18.20;100.00;99666.47;6282868;28;20506;-72
2022/08/01 03:54:23;;;;;;;1.30;1.17;;;;;;;18.21;100.00;99662.84;6300838;28;20033;-73
2022/08/01 03:57:31;;;;;;;2.58;1.60;;;;;;;18.25;100.00;99656.25;6300770;28;20049;-76
2022/08/01 04:00:33;;;;;;;1.83;1.45;;;;;;;18.27;100.00;99667.50;6300672;28;20044;-76
2022/08/01 04:03:34;;;;;;;3.72;1.60;;;;;;;18.20;100.00;99666.47;6282235;28;20374;-76
2022/08/01 04:06:40;;;;;;;1.80;1.33;;;;;;;18.24;100.00;99669.63;6300355;28;20053;-73
2022/08/01 04:09:42;;;;;;;2.05;1.25;;;;;;;18.27;100.00;99661.41;6300468;28;20460;-73
2022/08/01 04:12:42;;;;;;;;;;;;;;;18.27;100.00;99667.50;6249617;28;20071;-76
2022/08/01 04:15:44;;;;;;;1.35;1.25;;;;;;;18.32;100.00;99675.81;6265474;28;20041;-76
2022/08/01 04:18:47;;;;;;;3.60;1.58;;;;;;;18.31;100.00;99668.03;6282200;28;20055;-76
2022/08/01 04:21:48;;;;;;;1.58;1.45;;;;;;;18.29;100.00;99675.28;6266098;28;20064;-76
2022/08/01 04:24:55;;;;;;;1.40;1.30;;;;;;;18.25;100.00;99684.50;6249400;28;20040;-72
2022/08/01 04:27:58;;;;;;;1.30;1.15;;;;;;;18.25;100.00;99687.94;6299696;28;20479;-76
2022/08/01 04:31:00;;;;;;;2.20;1.20;;;;;;;18.37;100.00;99687.72;6299703;28;20494;-73
2022/08/01 04:34:05;;;;;;;1.38;1.27;;;;;;;18.43;100.00;99676.53;6294345;28;20063;-73
2022/08/01 04:37:09;;;;;;;1.70;1.25;;;;;;;18.41;100.00;99684.63;6297852;28;20053;-73
2022/08/01 04:40:12;;;;;;;2.72;1.30;;;;;;;18.29;100.00;99684.03;6299894;28;20086;-72
2022/08/01 04:43:12;;;;;;;2.90;1.60;;;;;;;18.45;100.00;99691.25;6280520;28;20520;-74
2022/08/01 04:46:14;;;;;;;4.70;1.70;;;;;;;18.56;100.00;99692.81;6265092;28;20260;-75
2022/08/01 04:49:18;;;;;;;1.77;1.45;;;;;;;18.64;100.00;99690.25;6291309;28;20419;-76
2022/08/01 04:52:19;;;;;;;1.85;1.58;;;;;;;18.58;100.00;99684.75;6288522;28;20406;-72
2022/08/01 04:55:20;;;;;;;1.83;1.20;;;;;;;18.62;100.00;99686.09;6296570;28;20119;-72
2022/08/01 04:58:23;;;;;;;1.40;1.17;;;;;;;18.71;100.00;99690.44;6288432;28;20384;-71
2022/08/01 05:01:24;;;;;;;3.03;1.10;;;;;;;18.77;100.00;99681.91;6297504;28;20045;-75
2022/08/01 05:04:25;;;;;;;1.43;1.30;;;;;;;18.75;100.00;99683.88;6274510;28;20044;-75
2022/08/01 05:07:28;;;;;;;1.57;1.47;;;;;;;18.56;100.00;99670.88;6247375;28;20482;-76
2022/08/01 05:10:30;;;;;;;2.33;1.35;;;;;;;18.60;100.00;99667.75;6289001;28;20406;-76
2022/08/01 05:13:31;;;;;;;1.73;1.40;;;;;;;18.57;100.00;99670.69;6280596;28;20071;-72
2022/08/01 05:16:35;;;;;;;3.05;1.52;;;;;;;18.58;100.00;99661.78;6298437;28;20044;-75
2022/08/01 05:19:39;;;;;;;1.70;1.60;;;;;;;18.51;100.00;99674.78;6296945;28;20063;-72
2022/08/01 05:22:40;;;;;;;2.00;1.85;;;;;;;18.50;100.00;99675.75;6298448;28;20514;-76
2022/08/01 05:25:42;;;;;;;1.92;1.77;;;;;;;18.48;100.00;99669.81;6297913;28;20479;-72
2022/08/01 05:28:42;;;;;;;6.00;2.20;;;;;;;18.49;100.00;99674.13;6290547;28;20067;-72
2022/08/01 05:31:46;;;;;;;3.03;2.00;;;;;;;18.63;100.00;99672.72;6263185;28;20471;-75
2022/08/01 05:34:49;;;;;;;1.95;1.67;;;;;;;18.70;100.00;99680.88;6277320;28;20036;-72
2022/08/01 05:37:50;;;;;;;2.53;1.80;;;;;;;18.78;100.00;99678.28;6297428;28;20043;-72
2022/08/01 05:40:51;;;;;;;2.05;1.85;;;;;;;18.90;100.00;99684.16;6261615;28;20467;-75
2022/08/01 05:43:52;;;;;;;3.85;1.85;;;;;;;19.02;100.00;99685.53;6255542;28;20041;-72
2022/08/01 05:46:53;;;;;;;4.75;2.03;;;;;;;18.98;100.00;99684.19;6272106;28;20075;-71
2022/08/01 05:49:53;;;;;;;2.40;1.90;;;;;;;19.10;100.00;99695.34;6279557;28;20320;-72
2022/08/01 05:52:57;;;;;;;3.67;1.83;;;;;;;19.26;100.00;99695.41;6285568;28;20049;-72
2022/08/01 05:55:58;;;;;;;2.58;1.90;;;;;;;19.24;100.00;99696.56;6280196;28;20055;-72
2022/08/01 05:58:59;;;;;;;2.30;1.70;;;;;;;19.36;100.00;99695.31;6272643;28;20068;-72
2022/08/01 06:02:04;;;;;;;2.07;1.63;;;;;;;19.47;100.00;99708.22;6280125;28;20045;-71
2022/08/01 06:05:11;;;;;;;2.05;1.85;;;;;;;19.48;100.00;99706.44;6296514;28;20399;-75
2022/08/01 06:08:15;;;;;;;2.10;1.90;;;;;;;19.30;100.00;99709.16;6296294;28;20543;-75
2022/08/01 06:11:15;;;;;;;1.90;1.77;;;;;;;19.12;100.00;99714.50;6263809;28;20037;-75
2022/08/01 06:14:16;;;;;;;1.73;1.63;;;;;;;19.09;100.00;99714.84;6294272;28;20055;-75
2022/08/01 06:17:17;;;;;;;2.13;1.90;;;;;;;19.24;100.00;99723.03;6276846;28;20044;-75
2022/08/01 06:20:18;;;;;;;;;;;;;;;19.04;100.00;99720.59;6245308;28;20056;-75
2022/08/01 06:23:20;;;;;;;2.20;2.00;;;;;;;19.11;100.00;99716.34;6284770;28;19973;-71
2022/08/01 06:26:23;;;;;;;2.35;2.05;;;;;;;19.41;100.00;99730.03;6272553;28;20068;-71
2022/08/01 06:29:24;;;;;;;3.10;1.70;;;;;;;19.69;100.00;99728.00;6259099;28;20098;-71
2022/08/01 06:32:26;;;;;;;2.42;1.98;;;;;;;19.63;100.00;99735.75;6278652;28;20482;-75
2022/08/01 06:35:29;;;;;;;2.35;1.60;;;;;;;19.57;100.00;99734.56;6296375;28;20046;-75
2022/08/01 06:38:30;;;;;;;1.92;1.83;;;;;;;19.78;100.00;99736.00;6293438;28;20048;-71
2022/08/01 06:41:31;;;;;;;2.93;2.20;;;;;;;19.82;100.00;99734.69;6261988;28;20083;-71
2022/08/01 06:44:31;;;;;;;2.13;1.80;;;;;;;19.80;100.00;99732.19;6280604;28;20049;-75
2022/08/01 06:47:34;;;;;;;1.93;1.70;;;;;;;20.00;100.00;99738.03;6277867;28;20052;-73
2022/08/01 06:50:36;;;;;;;2.38;1.88;;;;;;;20.10;100.00;99736.09;6268719;28;20079;-74
2022/08/01 06:53:40;;;;;;;2.53;2.00;;;;;;;19.99;100.00;99748.78;6268288;28;20045;-73
2022/08/01 06:56:41;;;;;;;2.13;1.60;;;;;;;20.14;100.00;99752.47;6296335;28;20071;-74
2022/08/01 06:59:42;;;;;;;2.58;1.42;;;;;;;20.12;100.00;99755.28;6296612;28;20071;-70
2022/08/01 07:02:46;;;;;;;1.43;1.33;;;;;;;20.29;100.00;99750.00;6262720;28;20525;-70
2022/08/01 07:05:47;;;;;;;2.35;1.30;;;;;;;20.30;100.00;99749.00;6270020;28;20045;-74
2022/08/01 07:08:47;;;;;;;2.63;2.03;;;;;;;20.29;100.00;99763.25;6281297;28;20055;-74
2022/08/01 07:11:48;;;;;;;2.43;1.83;;;;;;;20.26;100.00;99752.97;6271743;28;20516;-70
2022/08/01 07:14:49;;;;;;;4.00;2.60;;;;;;;20.24;100.00;99747.88;6296050;28;20467;-70
2022/08/01 07:17:50;;;;;;;3.40;2.30;;;;;;;20.18;100.00;99750.31;6278638;28;20047;-72
2022/08/01 07:20:51;;;;;;;2.15;1.83;;;;;;;20.20;100.00;99757.13;6296037;28;20483;-70
2022/08/01 07:23:52;;;;;;;3.60;3.20;;;;;;;20.21;100.00;99752.66;6278276;28;20053;-71
2022/08/01 07:26:53;;;;;;;6.70;1.93;;;;;;;20.05;100.00;99751.63;6278697;28;20052;-71
2022/08/01 07:29:54;;;;;;;1.60;1.50;;;;;;;19.97;100.00;99746.28;6262115;28;20048;-74
2022/08/01 07:32:55;;;;;;;4.97;1.47;;;;;;;19.86;100.00;99750.09;6261994;28;20052;-70
2022/08/01 07:35:56;;;;;;;3.23;1.40;;;;;;;19.77;100.00;99753.72;6281945;28;20083;-71
2022/08/01 07:38:59;;;;;;;1.40;1.30;;;;;;;19.88;100.00;99753.41;6285744;28;20055;-70
2022/08/01 07:42:00;;;;;;;2.10;1.40;;;;;;;19.83;100.00;99760.16;6295146;28;20055;-75
2022/08/01 07:45:03;;;;;;;4.77;1.60;;;;;;;19.63;100.00;99763.03;6296216;28;20372;-74
2022/08/01 07:48:07;;;;;;;3.20;2.15;;;;;;;19.81;100.00;99767.44;6278716;28;20041;-71
2022/08/01 07:51:10;;;;;;;2.08;1.90;;;;;;;19.98;100.00;99761.22;6294809;28;20048;-71
2022/08/01 07:54:10;;;;;;;5.25;1.95;;;;;;;20.03;100.00;99771.31;6287689;28;20075;-71
2022/08/01 07:57:11;;;;;;;3.87;2.20;;;;;;;20.12;100.00;99765.88;6277239;28;20044;-70
2022/08/01 08:00:13;;;;;;;2.50;1.77;;;;;;;20.18;100.00;99771.50;6252469;28;20037;-71
2022/08/01 08:03:14;;;;;;;4.45;2.13;;;;;;;20.12;100.00;99773.81;6268890;28;20449;-75
2022/08/01 08:06:16;;;;;;;2.60;2.40;;;;;;;20.30;100.00;99771.06;6268919;28;20044;-74
2022/08/01 08:09:16;;;;;;;5.20;2.20;;;;;;;20.42;100.00;99766.25;6258663;28;20123;-74
2022/08/01 08:12:18;;;;;;;2.58;2.05;;;;;;;20.47;100.00;99774.53;6251896;28;20487;-74
2022/08/01 08:15:19;;;;;;;2.90;1.83;;;;;;;20.62;100.00;99779.22;6277629;28;20059;-74
2022/08/01 08:18:20;;;;;;;1.90;1.77;;;;;;;20.63;100.00;99778.22;6297971;28;20062;-74
2022/08/01 08:21:21;;;;;;;3.13;1.80;;;;;;;20.69;100.00;99777.56;6299593;28;20049;-74
2022/08/01 08:24:26;;;;;;;2.22;1.58;;;;;;;20.61;100.00;99777.56;6281231;28;20482;-74
2022/08/01 08:27:30;;;;;;;2.25;1.85;;;;;;;20.63;100.00;99789.66;6267778;28;20040;-70
2022/08/01 08:30:31;;;;;;;3.60;1.70;;;;;;;20.73;100.00;99792.97;6281837;28;20065;-70
2022/08/01 08:33:32;;;;;;;3.53;1.85;;;;;;;20.87;100.00;99788.81;6282119;28;20051;-70
2022/08/01 08:36:33;;;;;;;2.03;1.80;;;;;;;20.89;97.34;99793.97;6298450;28;20380;-74
2022/08/01 08:39:35;;;;;;;2.70;1.50;;;;;;;20.92;96.67;99793.66;6299677;28;20098;-70
2022/08/01 08:42:38;;;;;;;5.87;1.90;;;;;;;20.92;95.65;99797.13;6282104;28;20072;-74
2022/08/01 08:45:39;;;;;;;2.15;1.70;;;;;;;21.16;97.98;99799.91;6280930;28;20078;-74
2022/08/01 08:48:41;;;;;;;3.78;1.92;;;;;;;21.04;96.08;99800.22;6299256;28;20036;-69
2022/08/01 08:51:47;;;;;;;2.85;1.80;;;;;;;21.05;95.97;99809.03;6300375;28;20071;-71
2022/08/01 08:54:51;;;;;;;2.17;1.55;;;;;;;20.43;92.00;99801.53;6296424;28;20052;-71
2022/08/01 08:57:52;;;;;;;7.20;2.53;;;;;;;20.92;99.05;99788.34;6280976;28;20415;-71
2022/08/01 09:00:56;;;;;;;2.30;1.67;;;;;;;21.06;90.93;99798.25;6297215;28;20044;-71
2022/08/01 09:03:57;;;;;;;1.60;1.50;;;;;;;21.21;93.56;99790.44;6265511;28;20098;-71
2022/08/01 09:06:58;;;;;;;2.50;1.83;;;;;;;21.38;88.88;99799.19;6248139;28;20445;-71
2022/08/01 09:09:59;;;;;;;3.20;2.07;;;;;;;21.43;93.34;99804.00;6282737;28;20311;-71
2022/08/01 09:13:10;;;;;;;3.10;1.83;;;;;;;21.66;89.55;99798.78;6263460;28;20269;-72
2022/08/01 09:16:17;;;;;;;2.20;1.60;;;;;;;21.73;85.90;99799.78;6277425;28;20119;-71
2022/08/01 09:19:19;;;;;;;6.43;2.05;;;;;;;21.70;84.87;99803.63;6289763;28;20066;-72
2022/08/01 09:22:23;;;;;;;2.47;1.65;;;;;;;21.09;87.34;99795.28;6283648;28;20388;-75
2022/08/01 09:25:24;;;;;;;5.32;1.73;;;;;;;21.08;88.79;99804.22;6284963;28;20060;-71
2022/08/01 09:28:30;;;;;;;3.08;2.25;;;;;;;21.35;94.65;99804.81;6298079;28;20045;-75
2022/08/01 09:31:43;;;;;;;3.05;2.00;;;;;;;21.29;87.71;99798.38;6298314;28;20047;-74
2022/08/01 09:34:46;;;;;;;2.38;1.83;;;;;;;21.44;90.84;99803.84;6280956;28;20045;-74
2022/08/01 09:37:46;;;;;;;;;;;;;;;21.34;89.72;99797.88;6298288;28;20380;-70
2022/08/01 09:40:51;;;;;;;5.70;1.80;;;;;;;21.39;88.26;99805.31;6264228;28;19955;-70
2022/08/01 09:43:55;;;;;;;3.05;2.00;;;;;;;21.48;86.55;99805.16;6298125;28;20043;-74
2022/08/01 09:46:56;;;;;;;8.07;2.45;;;;;;;21.41;89.29;99805.97;6298218;28;20439;-70
2022/08/01 09:50:00;;;;;;;3.10;2.10;;;;;;;21.43;85.68;99807.50;6288894;28;20056;-70
2022/08/01 09:53:04;;;;;;;5.13;2.10;;;;;;;21.63;85.49;99807.13;6280765;28;20406;-75
2022/08/01 09:56:10;;;;;;;2.20;2.00;;;;;;;21.62;89.65;99800.97;6267432;28;20072;-75
2022/08/01 09:59:11;;;;;;;5.32;2.00;;;;;;;21.88;84.82;99800.69;6298077;28;20090;-75
2022/08/01 10:02:25;;;;;;;1.95;1.73;;;;;;;22.02;84.97;99801.81;6296592;28;20478;-76
2022/08/01 10:05:34;;;;;;;5.10;1.80;;;;;;;21.48;80.42;99807.81;6296775;28;20048;-69
2022/08/01 10:08:46;;;;;;;2.03;1.60;;;;;;;21.68;85.08;99808.25;6296604;28;20074;-73
2022/08/01 10:11:47;;;;;;;2.22;1.95;;;;;;;21.78;84.37;99810.69;6297325;28;20049;-69
2022/08/01 10:14:50;;;;;;;3.93;2.27;;;;;;;21.72;83.38;99814.88;6279806;28;20053;-68
2022/08/01 10:18:05;;;;;;;1.95;1.80;;;;;;;22.00;82.97;99808.28;6277011;28;20044;-68
2022/08/01 10:21:07;;;;;;;2.72;1.83;;;;;;;22.32;88.77;99816.13;6297080;28;20066;-75
2022/08/01 10:24:10;;;;;;;3.25;1.90;;;;;;;22.60;81.36;99814.75;6279902;28;20430;-75
2022/08/01 10:27:13;;;;;;;4.72;1.75;;;;;;;23.06;79.49;99804.94;6294715;28;20040;-75
2022/08/01 10:30:15;;;;;;;3.05;1.85;;;;;;;23.40;73.44;99803.59;6295982;28;20052;-70
2022/08/01 10:33:17;;;;;;;2.47;1.98;;;;;;;23.82;79.53;99803.97;6296099;28;20051;-71
2022/08/01 10:36:20;;;;;;;4.25;1.90;;;;;;;24.32;70.80;99807.63;6295876;28;20043;-71
2022/08/01 10:39:22;;;;;;;2.20;1.80;;;;;;;24.34;72.46;99809.09;6295277;28;20112;-70
2022/08/01 10:42:24;;;;;;;2.45;1.70;;;;;;;24.36;64.61;99805.41;6286136;28;20049;-71
2022/08/01 10:45:26;;;;;;;2.05;1.40;;;;;;;24.31;69.06;99812.13;6234687;28;20056;-71
2022/08/01 10:48:42;;;;;;;1.95;1.38;;;;;;;24.34;64.76;99813.59;6253115;28;20064;-70
2022/08/01 10:51:44;;;;;;;2.15;1.35;;;;;;;24.44;64.64;99808.78;6251096;28;20045;-69
2022/08/01 10:54:46;;;;;;;2.22;1.15;;;;;;;24.75;66.10;99813.00;6278594;28;20047;-71
2022/08/01 10:57:47;;;;;;;;;;;;;;;24.01;61.29;99803.41;6285598;28;20426;-75
2022/08/01 11:00:48;;;;;;;5.28;1.75;;;;;;;24.29;60.80;99808.00;6295241;28;19920;-74
2022/08/01 11:04:08;;;;;;;1.85;1.50;;;;;;;24.83;63.49;99804.03;6295286;28;20052;-73
2022/08/01 11:07:19;;;;;;;1.70;1.20;;;;;;;25.38;58.87;99801.59;6296160;28;20040;-74
2022/08/01 11:11:02;;;;;;;1.77;1.48;;;;;;;25.49;59.26;99795.69;6295606;28;20052;-75
2022/08/01 11:14:09;;;;;;;2.42;1.42;;;;;;;26.08;61.12;99802.34;6277914;28;20055;-75
2022/08/01 11:17:34;;;;;;;2.88;1.90;;;;;;;26.27;59.98;99795.41;6294631;28;20426;-75
2022/08/01 11:20:57;;;;;;;2.65;1.40;;;;;;;24.79;58.82;99786.75;6296000;28;20056;-71
2022/08/01 11:24:01;;;;;;;1.75;1.40;;;;;;;25.15;54.11;99786.63;6237275;28;20064;-75
2022/08/01 11:27:21;;;;;;;2.03;1.50;;;;;;;26.28;54.24;99789.03;6237201;28;20049;-69
2022/08/01 11:30:25;;;;;;;2.70;1.80;;;;;;;25.62;55.61;99785.09;6271418;28;20107;-70
2022/08/01 11:33:47;;;;;;;2.30;1.60;;;;;;;26.61;60.31;99782.94;6271642;28;20439;-75
2022/08/01 11:37:11;;;;;;;3.25;1.80;;;;;;;26.52;56.86;99777.75;6291907;28;20382;-70
2022/08/01 11:40:17;;;;;;;3.53;1.60;;;;;;;25.65;54.38;99775.84;6294936;28;20403;-70
2022/08/01 11:43:18;;;;;;;1.98;1.45;;;;;;;25.56;55.97;99775.19;6277865;28;20053;-75
2022/08/01 11:46:20;;;;;;;4.53;1.50;;;;;;;25.21;59.79;99779.72;6261238;28;20052;-75
2022/08/01 11:49:36;;;;;;;3.35;1.60;;;;;;;25.31;52.80;99773.00;6294642;28;20040;-75
2022/08/01 11:52:40;;;;;;;7.68;1.60;;;;;;;26.05;54.53;99770.69;6298615;28;20058;-76
2022/08/01 11:55:52;;;;;;;2.53;1.70;;;;;;;25.93;54.06;99771.25;6295152;28;20483;-71
2022/08/01 11:58:59;;;;;;;2.83;1.80;;;;;;;25.37;56.36;99765.22;6282670;28;20550;-70
2022/08/01 12:02:01;;;;;;;4.22;1.80;;;;;;;25.41;56.08;99761.13;6299838;28;20055;-70
2022/08/01 12:05:06;;;;;;;3.97;1.70;;;;;;;25.45;57.18;99760.56;6259991;28;20048;-70
2022/08/01 12:08:10;;;;;;;2.63;1.77;;;;;;;25.05;57.24;99760.25;6299789;28;20044;-75
2022/08/01 12:11:12;;;;;;;4.30;2.00;;;;;;;25.58;55.95;99761.63;6300087;28;20470;-69
2022/08/01 12:14:19;;;;;;;2.38;1.63;;;;;;;25.87;54.20;99764.00;6265855;28;20048;-71
2022/08/01 12:17:28;;;;;;;3.88;2.00;;;;;;;26.05;53.38;99765.34;6289366;28;20044;-72
2022/08/01 12:20:38;;;;;;;8.38;2.10;;;;;;;25.74;53.15;99761.31;6293035;28;20068;-73
2022/08/01 12:23:39;;;;;;;2.72;1.80;;;;;;;25.38;54.41;99767.69;6299718;28;20466;-69
2022/08/01 12:26:41;;;;;;;3.07;1.90;;;;;;;25.98;55.00;99761.81;6290216;28;20040;-73
2022/08/01 12:29:45;;;;;;;3.47;1.77;;;;;;;25.54;54.14;99761.22;6282233;28;20293;-75
2022/08/01 12:32:52;;;;;;;5.32;2.05;;;;;;;25.80;55.73;99765.84;6281022;28;20127;-74
2022/08/01 12:35:53;;;;;;;2.42;1.80;;;;;;;25.66;55.88;99769.50;6283350;28;20513;-74
2022/08/01 12:38:56;;;;;;;2.60;2.03;;;;;;;24.99;56.86;99773.56;6280612;28;20479;-74
2022/08/01 12:41:57;;;;;;;4.03;1.85;;;;;;;25.38;59.37;99769.53;6298320;28;20040;-71
2022/08/01 12:44:58;;;;;;;3.60;1.88;;;;;;;25.45;55.94;99773.91;6266777;28;20047;-74
2022/08/01 12:48:01;;;;;;;3.15;1.80;;;;;;;25.67;56.24;99766.59;6280501;28;20056;-71
2022/08/01 12:51:02;;;;;;;6.75;1.98;;;;;;;26.06;62.13;99764.28;6298787;28;20479;-74
2022/08/01 12:54:09;;;;;;;5.20;1.60;;;;;;;26.07;62.08;99761.44;6298115;28;20531;-74
2022/08/01 12:57:23;;;;;;;2.65;1.65;;;;;;;26.24;53.83;99763.72;6298016;28;20483;-71
2022/08/01 13:00:26;;;;;;;3.40;1.90;;;;;;;26.40;59.41;99757.16;6281136;28;20055;-71
2022/08/01 13:03:26;;;;;;;3.17;1.85;;;;;;;26.21;57.49;99767.66;6288760;28;20384;-74
2022/08/01 13:06:30;;;;;;;1.77;1.50;;;;;;;25.68;58.00;99762.91;6298391;28;20075;-74
2022/08/01 13:09:32;;;;;;;2.42;1.50;;;;;;;25.51;57.79;99765.09;6287523;28;20049;-74
2022/08/01 13:12:36;;;;;;;4.03;1.42;;;;;;;25.76;54.75;99761.94;6263679;28;20118;-70
2022/08/01 13:15:43;;;;;;;3.15;1.25;;;;;;;25.83;54.29;99760.09;6292954;28;20040;-71
2022/08/01 13:18:52;;;;;;;4.95;1.60;;;;;;;25.58;55.95;99766.97;6293062;28;20041;-73
2022/08/01 13:21:55;;;;;;;7.05;1.50;;;;;;;25.37;58.28;99766.06;6297974;28;20045;-71
2022/08/01 13:25:12;;;;;;;1.67;1.58;;;;;;;25.59;56.36;99766.75;6292806;28;20037;-70
2022/08/01 13:28:21;;;;;;;2.80;1.77;;;;;;;25.90;59.76;99758.31;6261967;28;20052;-73
2022/08/01 13:31:32;;;;;;;1.75;1.63;;;;;;;25.92;57.55;99761.59;6279662;28;20037;-74
2022/08/01 13:34:34;;;;;;;1.65;1.45;;;;;;;25.73;56.92;99768.47;6291973;28;20037;-73
2022/08/01 13:37:35;;;;;;;2.33;1.52;;;;;;;25.56;58.40;99761.84;6305423;28;20106;-73
2022/08/01 13:40:39;;;;;;;4.90;1.70;;;;;;;25.85;56.84;99767.91;6297090;28;20175;-73
2022/08/01 13:43:40;;;;;;;3.70;1.75;;;;;;;25.72;57.73;99766.03;6287907;28;20055;-73
2022/08/01 13:46:47;;;;;;;2.70;1.77;;;;;;;25.72;56.67;99766.03;6295946;28;20048;-74
2022/08/01 13:49:51;;;;;;;5.35;1.98;;;;;;;25.97;57.71;99763.66;6297282;28;20545;-70
2022/08/01 13:52:52;;;;;;;1.88;1.55;;;;;;;26.51;57.51;99762.72;6270215;28;20049;-70
2022/08/01 13:55:53;;;;;;;3.15;1.60;;;;;;;26.79;55.55;99752.88;6296875;28;20137;-71
2022/08/01 13:58:54;;;;;;;;;;;;;;;26.96;53.05;99748.75;6282021;28;20513;-71
2022/08/01 14:01:56;;;;;;;2.25;1.40;;;;;;;26.96;53.66;99753.28;6285339;28;19920;-74
2022/08/01 14:04:58;;;;;;;2.90;1.80;;;;;;;26.42;54.20;99752.41;6289417;28;20448;-71
2022/08/01 14:07:59;;;;;;;4.47;1.52;;;;;;;26.25;55.80;99757.34;6283272;28;20407;-73
2022/08/01 14:10:59;;;;;;;1.98;1.77;;;;;;;26.14;55.54;99748.06;6290026;28;20044;-74
2022/08/01 14:14:02;;;;;;;2.13;1.30;;;;;;;26.39;56.36;99752.84;6296643;28;20117;-74
2022/08/01 14:17:04;;;;;;;6.82;1.70;;;;;;;26.53;56.66;99747.28;6297122;28;20849;-74
2022/08/01 14:20:05;;;;;;;1.83;1.60;;;;;;;26.27;55.48;99763.31;6296396;28;20049;-72